sensor_id;sensor_type;location;lat;lon;timestamp;pressure;altitude;pressure_sealevel;temperature;humidity
74834;BME280;63361;52.384;20.930;2024-01-25T00:00:16;99449.28;;;5.77;100.00
74834;BME280;63361;52.384;20.930;2024-01-25T00:02:42;99424.13;;;5.78;100.00
74834;BME280;63361;52.384;20.930;2024-01-25T00:05:07;99440.72;;;5.70;100.00
74834;BME280;63361;52.384;20.930;2024-01-25T00:07:32;99478.72;;;5.82;100.00
74834;BME280;63361;52.384;20.930;2024-01-25T00:09:58;99479.53;;;5.77;100.00
74834;BME280;63361;52.384;20.930;2024-01-25T00:12:23;99434.88;;;5.52;100.00
74834;BME280;63361;52.384;20.930;2024-01-25T00:14:48;99444.78;;;5.62;100.00
74834;BME280;63361;52.384;20.930;2024-01-25T00:17:14;99430.88;;;5.50;100.00
74834;BME280;63361;52.384;20.930;2024-01-25T00:19:39;99455.19;;;5.74;100.00
74834;BME280;63361;52.384;20.930;2024-01-25T00:22:06;99446.38;;;5.58;100.00
74834;BME280;63361;52.384;20.930;2024-01-25T00:24:32;99462.94;;;5.80;100.00
74834;BME280;63361;52.384;20.930;2024-01-25T00:26:58;99480.34;;;5.78;100.00
74834;BME280;63361;52.384;20.930;2024-01-25T00:29:23;99460.28;;;5.65;100.00
74834;BME280;63361;52.384;20.930;2024-01-25T00:31:49;99492.66;;;5.79;100.00
74834;BME280;63361;52.384;20.930;2024-01-25T00:34:14;99476.31;;;5.85;100.00
74834;BME280;63361;52.384;20.930;2024-01-25T00:36:40;99469.88;;;5.81;100.00
74834;BME280;63361;52.384;20.930;2024-01-25T00:39:06;99440.75;;;5.64;100.00
74834;BME280;63361;52.384;20.930;2024-01-25T00:41:32;99441.03;;;5.63;100.00
74834;BME280;63361;52.384;20.930;2024-01-25T00:43:58;99466.72;;;5.54;100.00
74834;BME280;63361;52.384;20.930;2024-01-25T00:46:24;99428.22;;;5.35;100.00
74834;BME280;63361;52.384;20.930;2024-01-25T00:48:49;99465.69;;;5.35;100.00
74834;BME280;63361;52.384;20.930;2024-01-25T00:51:15;99478.25;;;5.44;100.00
74834;BME280;63361;52.384;20.930;2024-01-25T00:53:45;99475.31;;;5.25;100.00
74834;BME280;63361;52.384;20.930;2024-01-25T00:56:11;99506.88;;;5.39;100.00
74834;BME280;63361;52.384;20.930;2024-01-25T00:58:37;99480.13;;;5.28;100.00
74834;BME280;63361;52.384;20.930;2024-01-25T01:01:02;99487.34;;;5.28;100.00
74834;BME280;63361;52.384;20.930;2024-01-25T01:03:28;99499.91;;;5.43;100.00
74834;BME280;63361;52.384;20.930;2024-01-25T01:05:53;99507.16;;;5.32;100.00
74834;BME280;63361;52.384;20.930;2024-01-25T01:08:19;99484.66;;;5.13;100.00
74834;BME280;63361;52.384;20.930;2024-01-25T01:10:44;99450.69;;;4.98;100.00
74834;BME280;63361;52.384;20.930;2024-01-25T01:13:10;99467.81;;;5.02;100.00
74834;BME280;63361;52.384;20.930;2024-01-25T01:15:35;99478.50;;;5.02;100.00
74834;BME280;63361;52.384;20.930;2024-01-25T01:18:00;99460.59;;;4.98;100.00
74834;BME280;63361;52.384;20.930;2024-01-25T01:20:26;99464.59;;;4.95;100.00
74834;BME280;63361;52.384;20.930;2024-01-25T01:22:51;99465.13;;;4.87;100.00
74834;BME280;63361;52.384;20.930;2024-01-25T01:25:17;99454.66;;;4.75;100.00
74834;BME280;63361;52.384;20.930;2024-01-25T01:27:43;99475.25;;;4.90;100.00
74834;BME280;63361;52.384;20.930;2024-01-25T01:30:08;99481.16;;;4.97;100.00
74834;BME280;63361;52.384;20.930;2024-01-25T01:32:34;99492.94;;;5.11;100.00
74834;BME280;63361;52.384;20.930;2024-01-25T01:34:59;99504.22;;;5.18;100.00
74834;BME280;63361;52.384;20.930;2024-01-25T01:37:25;99462.44;;;4.97;100.00
74834;BME280;63361;52.384;20.930;2024-01-25T01:39:50;99496.69;;;5.25;100.00
74834;BME280;63361;52.384;20.930;2024-01-25T01:42:16;99460.88;;;5.16;100.00
74834;BME280;63361;52.384;20.930;2024-01-25T01:44:41;99501.25;;;5.40;100.00
74834;BME280;63361;52.384;20.930;2024-01-25T01:47:07;99502.59;;;5.48;100.00
74834;BME280;63361;52.384;20.930;2024-01-25T01:49:32;99489.75;;;5.40;100.00
74834;BME280;63361;52.384;20.930;2024-01-25T01:51:58;99496.16;;;5.39;100.00
74834;BME280;63361;52.384;20.930;2024-01-25T01:54:24;99465.41;;;5.26;100.00
74834;BME280;63361;52.384;20.930;2024-01-25T01:56:49;99484.91;;;5.37;100.00
74834;BME280;63361;52.384;20.930;2024-01-25T01:59:15;99492.44;;;5.50;100.00
74834;BME280;63361;52.384;20.930;2024-01-25T02:01:41;99456.56;;;5.20;100.00
74834;BME280;63361;52.384;20.930;2024-01-25T02:04:07;99510.63;;;5.53;100.00
74834;BME280;63361;52.384;20.930;2024-01-25T02:06:32;99485.47;;;5.44;100.00
74834;BME280;63361;52.384;20.930;2024-01-25T02:08:57;99509.00;;;5.52;100.00
74834;BME280;63361;52.384;20.930;2024-01-25T02:11:26;99467.53;;;5.14;100.00
74834;BME280;63361;52.384;20.930;2024-01-25T02:13:51;99475.81;;;5.07;100.00
74834;BME280;63361;52.384;20.930;2024-01-25T02:16:17;99514.63;;;5.30;100.00
74834;BME280;63361;52.384;20.930;2024-01-25T02:18:46;99503.13;;;5.14;100.00
74834;BME280;63361;52.384;20.930;2024-01-25T02:21:14;99507.38;;;5.10;100.00
74834;BME280;63361;52.384;20.930;2024-01-25T02:23:40;99502.84;;;5.01;100.00
74834;BME280;63361;52.384;20.930;2024-01-25T02:26:06;99475.78;;;4.72;100.00
74834;BME280;63361;52.384;20.930;2024-01-25T02:28:31;99503.34;;;4.82;100.00
74834;BME280;63361;52.384;20.930;2024-01-25T02:30:57;99496.34;;;4.76;100.00
74834;BME280;63361;52.384;20.930;2024-01-25T02:33:22;99499.56;;;4.78;100.00
74834;BME280;63361;52.384;20.930;2024-01-25T02:35:47;99480.59;;;4.70;100.00
74834;BME280;63361;52.384;20.930;2024-01-25T02:38:13;99516.13;;;4.75;100.00
74834;BME280;63361;52.384;20.930;2024-01-25T02:40:38;99485.88;;;4.59;100.00
74834;BME280;63361;52.384;20.930;2024-01-25T02:43:04;99465.56;;;4.53;100.00
74834;BME280;63361;52.384;20.930;2024-01-25T02:45:29;99514.31;;;4.86;100.00
74834;BME280;63361;52.384;20.930;2024-01-25T02:47:54;99516.13;;;4.75;100.00
74834;BME280;63361;52.384;20.930;2024-01-25T02:50:20;99514.50;;;4.64;100.00
74834;BME280;63361;52.384;20.930;2024-01-25T02:52:45;99499.47;;;4.48;100.00
74834;BME280;63361;52.384;20.930;2024-01-25T02:55:10;99512.13;;;4.68;100.00
74834;BME280;63361;52.384;20.930;2024-01-25T02:57:36;99528.41;;;4.66;100.00
74834;BME280;63361;52.384;20.930;2024-01-25T03:00:01;99512.09;;;4.57;100.00
74834;BME280;63361;52.384;20.930;2024-01-25T03:02:26;99525.47;;;4.57;100.00
74834;BME280;63361;52.384;20.930;2024-01-25T03:04:52;99497.06;;;4.46;100.00
74834;BME280;63361;52.384;20.930;2024-01-25T03:07:17;99484.75;;;4.35;100.00
74834;BME280;63361;52.384;20.930;2024-01-25T03:09:43;99518.75;;;4.60;100.00
74834;BME280;63361;52.384;20.930;2024-01-25T03:12:08;99527.31;;;4.62;100.00
74834;BME280;63361;52.384;20.930;2024-01-25T03:14:33;99545.25;;;4.67;100.00
74834;BME280;63361;52.384;20.930;2024-01-25T03:16:59;99458.50;;;4.12;100.00
74834;BME280;63361;52.384;20.930;2024-01-25T03:19:25;99494.88;;;4.33;100.00
74834;BME280;63361;52.384;20.930;2024-01-25T03:21:51;99560.47;;;4.56;100.00
74834;BME280;63361;52.384;20.930;2024-01-25T03:24:16;99550.03;;;4.54;100.00
74834;BME280;63361;52.384;20.930;2024-01-25T03:26:41;99472.34;;;4.09;100.00
74834;BME280;63361;52.384;20.930;2024-01-25T03:29:07;99506.88;;;4.26;100.00
74834;BME280;63361;52.384;20.930;2024-01-25T03:31:32;99521.34;;;4.35;100.00
74834;BME280;63361;52.384;20.930;2024-01-25T03:33:58;99552.13;;;4.42;100.00
74834;BME280;63361;52.384;20.930;2024-01-25T03:36:23;99554.28;;;4.50;100.00
74834;BME280;63361;52.384;20.930;2024-01-25T03:38:48;99476.81;;;3.93;100.00
74834;BME280;63361;52.384;20.930;2024-01-25T03:41:14;99548.38;;;4.48;100.00
74834;BME280;63361;52.384;20.930;2024-01-25T03:43:39;99542.22;;;4.43;100.00
74834;BME280;63361;52.384;20.930;2024-01-25T03:46:04;99476.06;;;4.03;100.00
74834;BME280;63361;52.384;20.930;2024-01-25T03:48:30;99509.78;;;4.19;100.00
74834;BME280;63361;52.384;20.930;2024-01-25T03:50:55;99513.50;;;4.18;100.00
74834;BME280;63361;52.384;20.930;2024-01-25T03:53:22;99532.56;;;4.37;100.00
74834;BME280;63361;52.384;20.930;2024-01-25T03:55:47;99532.25;;;4.28;100.00
74834;BME280;63361;52.384;20.930;2024-01-25T03:58:14;99539.06;;;4.56;100.00
74834;BME280;63361;52.384;20.930;2024-01-25T04:00:39;99504.78;;;4.33;100.00
74834;BME280;63361;52.384;20.930;2024-01-25T04:03:05;99558.03;;;4.59;100.00
74834;BME280;63361;52.384;20.930;2024-01-25T04:05:30;99509.84;;;4.34;100.00
74834;BME280;63361;52.384;20.930;2024-01-25T04:07:55;99486.59;;;4.30;100.00
74834;BME280;63361;52.384;20.930;2024-01-25T04:10:21;99497.00;;;4.31;100.00
74834;BME280;63361;52.384;20.930;2024-01-25T04:12:46;99561.56;;;4.65;100.00
74834;BME280;63361;52.384;20.930;2024-01-25T04:15:11;99527.03;;;4.58;100.00
74834;BME280;63361;52.384;20.930;2024-01-25T04:17:37;99530.50;;;4.59;100.00
74834;BME280;63361;52.384;20.930;2024-01-25T04:20:02;99525.94;;;4.49;100.00
74834;BME280;63361;52.384;20.930;2024-01-25T04:22:28;99550.03;;;4.54;100.00
74834;BME280;63361;52.384;20.930;2024-01-25T04:24:53;99491.66;;;4.31;100.00
74834;BME280;63361;52.384;20.930;2024-01-25T04:27:18;99541.75;;;4.61;100.00
74834;BME280;63361;52.384;20.930;2024-01-25T04:29:44;99517.09;;;4.44;100.00
74834;BME280;63361;52.384;20.930;2024-01-25T04:32:09;99509.00;;;4.29;100.00
74834;BME280;63361;52.384;20.930;2024-01-25T04:34:35;99543.34;;;4.57;100.00
74834;BME280;63361;52.384;20.930;2024-01-25T04:37:01;99532.63;;;4.42;100.00
74834;BME280;63361;52.384;20.930;2024-01-25T04:39:26;99535.00;;;4.38;100.00
74834;BME280;63361;52.384;20.930;2024-01-25T04:41:52;99517.03;;;4.23;100.00
74834;BME280;63361;52.384;20.930;2024-01-25T04:44:17;99557.47;;;4.47;100.00
74834;BME280;63361;52.384;20.930;2024-01-25T04:46:43;99550.47;;;4.36;100.00
74834;BME280;63361;52.384;20.930;2024-01-25T04:49:08;99523.91;;;4.14;100.00
74834;BME280;63361;52.384;20.930;2024-01-25T04:51:34;99585.00;;;4.48;100.00
74834;BME280;63361;52.384;20.930;2024-01-25T04:54:00;99517.25;;;4.12;100.00
74834;BME280;63361;52.384;20.930;2024-01-25T04:56:25;99530.84;;;4.10;100.00
74834;BME280;63361;52.384;20.930;2024-01-25T04:58:50;99541.78;;;4.14;100.00
74834;BME280;63361;52.384;20.930;2024-01-25T05:01:16;99562.09;;;4.15;100.00
74834;BME280;63361;52.384;20.930;2024-01-25T05:03:41;99550.34;;;4.16;100.00
74834;BME280;63361;52.384;20.930;2024-01-25T05:06:07;99537.81;;;4.11;100.00
74834;BME280;63361;52.384;20.930;2024-01-25T05:08:32;99554.44;;;4.29;100.00
74834;BME280;63361;52.384;20.930;2024-01-25T05:10:58;99555.28;;;4.34;100.00
74834;BME280;63361;52.384;20.930;2024-01-25T05:13:23;99583.38;;;4.47;100.00
74834;BME280;63361;52.384;20.930;2024-01-25T05:15:49;99575.09;;;4.48;100.00
74834;BME280;63361;52.384;20.930;2024-01-25T05:18:14;99595.97;;;4.51;100.00
74834;BME280;63361;52.384;20.930;2024-01-25T05:20:39;99584.44;;;4.41;100.00
74834;BME280;63361;52.384;20.930;2024-01-25T05:23:05;99583.38;;;4.47;100.00
74834;BME280;63361;52.384;20.930;2024-01-25T05:25:31;99576.38;;;4.36;100.00
74834;BME280;63361;52.384;20.930;2024-01-25T05:27:57;99537.03;;;4.21;100.00
74834;BME280;63361;52.384;20.930;2024-01-25T05:30:23;99537.50;;;4.13;100.00
74834;BME280;63361;52.384;20.930;2024-01-25T05:32:49;99561.63;;;4.28;100.00
74834;BME280;63361;52.384;20.930;2024-01-25T05:35:15;99568.06;;;4.32;100.00
74834;BME280;63361;52.384;20.930;2024-01-25T05:37:40;99609.13;;;4.58;100.00
74834;BME280;63361;52.384;20.930;2024-01-25T05:40:06;99586.06;;;4.47;100.00
74834;BME280;63361;52.384;20.930;2024-01-25T05:42:32;99561.13;;;4.26;100.00
74834;BME280;63361;52.384;20.930;2024-01-25T05:44:57;99579.34;;;4.44;100.00
74834;BME280;63361;52.384;20.930;2024-01-25T05:47:23;99594.88;;;4.47;100.00
74834;BME280;63361;52.384;20.930;2024-01-25T05:49:48;99597.88;;;4.56;100.00
74834;BME280;63361;52.384;20.930;2024-01-25T05:52:13;99610.44;;;4.60;100.00
74834;BME280;63361;52.384;20.930;2024-01-25T05:54:39;99560.56;;;4.29;100.00
74834;BME280;63361;52.384;20.930;2024-01-25T05:57:04;99601.78;;;4.43;100.00
74834;BME280;63361;52.384;20.930;2024-01-25T05:59:30;99578.75;;;4.32;100.00
74834;BME280;63361;52.384;20.930;2024-01-25T06:01:55;99588.69;;;4.37;100.00
74834;BME280;63361;52.384;20.930;2024-01-25T06:04:21;99568.59;;;4.29;100.00
74834;BME280;63361;52.384;20.930;2024-01-25T06:06:46;99614.16;;;4.59;100.00
74834;BME280;63361;52.384;20.930;2024-01-25T06:09:11;99601.78;;;4.43;100.00
74834;BME280;63361;52.384;20.930;2024-01-25T06:11:37;99625.16;;;4.63;100.00
74834;BME280;63361;52.384;20.930;2024-01-25T06:14:04;99593.50;;;4.45;100.00
74834;BME280;63361;52.384;20.930;2024-01-25T06:16:30;99604.22;;;4.45;100.00
74834;BME280;63361;52.384;20.930;2024-01-25T06:18:55;99595.84;;;4.31;100.00
74834;BME280;63361;52.384;20.930;2024-01-25T06:21:20;99599.59;;;4.30;100.00
74834;BME280;63361;52.384;20.930;2024-01-25T06:23:46;99633.59;;;4.45;100.00
74834;BME280;63361;52.384;20.930;2024-01-25T06:26:11;99640.59;;;4.51;100.00
74834;BME280;63361;52.384;20.930;2024-01-25T06:28:36;99570.06;;;4.05;100.00
74834;BME280;63361;52.384;20.930;2024-01-25T06:31:02;99596.94;;;4.35;100.00
74834;BME280;63361;52.384;20.930;2024-01-25T06:33:27;99616.47;;;4.36;100.00
74834;BME280;63361;52.384;20.930;2024-01-25T06:35:54;99619.97;;;4.41;100.00
74834;BME280;63361;52.384;20.930;2024-01-25T06:38:19;99606.53;;;4.31;100.00
74834;BME280;63361;52.384;20.930;2024-01-25T06:40:45;99572.69;;;4.00;100.00
74834;BME280;63361;52.384;20.930;2024-01-25T06:43:10;99570.25;;;3.93;100.00
74834;BME280;63361;52.384;20.930;2024-01-25T06:45:37;99582.50;;;3.89;100.00
74834;BME280;63361;52.384;20.930;2024-01-25T06:48:02;99625.13;;;4.11;100.00
74834;BME280;63361;52.384;20.930;2024-01-25T06:50:27;99648.22;;;4.27;100.00
74834;BME280;63361;52.384;20.930;2024-01-25T06:52:53;99643.06;;;4.20;100.00
74834;BME280;63361;52.384;20.930;2024-01-25T06:55:19;99603.13;;;3.99;100.00
74834;BME280;63361;52.384;20.930;2024-01-25T06:57:45;99663.69;;;4.30;100.00
74834;BME280;63361;52.384;20.930;2024-01-25T07:00:11;99632.59;;;4.14;100.00
74834;BME280;63361;52.384;20.930;2024-01-25T07:02:38;99655.13;;;4.23;100.00
74834;BME280;63361;52.384;20.930;2024-01-25T07:05:04;99675.97;;;4.26;100.00
74834;BME280;63361;52.384;20.930;2024-01-25T07:07:29;99619.06;;;3.88;100.00
74834;BME280;63361;52.384;20.930;2024-01-25T07:09:57;99661.47;;;4.17;100.00
74834;BME280;63361;52.384;20.930;2024-01-25T07:12:22;99649.97;;;4.11;100.00
74834;BME280;63361;52.384;20.930;2024-01-25T07:14:48;99630.91;;;4.03;100.00
74834;BME280;63361;52.384;20.930;2024-01-25T07:17:13;99685.06;;;4.30;100.00
74834;BME280;63361;52.384;20.930;2024-01-25T07:19:38;99666.31;;;4.20;100.00
74834;BME280;63361;52.384;20.930;2024-01-25T07:22:04;99696.81;;;4.29;100.00
74834;BME280;63361;52.384;20.930;2024-01-25T07:24:29;99639.16;;;3.96;100.00
74834;BME280;63361;52.384;20.930;2024-01-25T07:26:54;99652.03;;;4.04;100.00
74834;BME280;63361;52.384;20.930;2024-01-25T07:29:20;99678.91;;;4.30;100.00
74834;BME280;63361;52.384;20.930;2024-01-25T07:31:45;99617.75;;;3.91;100.00
74834;BME280;63361;52.384;20.930;2024-01-25T07:34:11;99674.00;;;4.16;100.00
74834;BME280;63361;52.384;20.930;2024-01-25T07:36:36;99653.38;;;4.07;100.00
74834;BME280;63361;52.384;20.930;2024-01-25T07:39:01;99682.31;;;4.20;100.00
74834;BME280;63361;52.384;20.930;2024-01-25T07:41:28;99662.25;;;4.12;100.00
74834;BME280;63361;52.384;20.930;2024-01-25T07:43:53;99672.13;;;4.12;100.00
74834;BME280;63361;52.384;20.930;2024-01-25T07:46:21;99677.00;;;4.20;100.00
74834;BME280;63361;52.384;20.930;2024-01-25T07:48:47;99665.50;;;4.19;100.00
74834;BME280;63361;52.384;20.930;2024-01-25T07:51:13;99648.56;;;4.04;100.00
74834;BME280;63361;52.384;20.930;2024-01-25T07:53:38;99651.03;;;4.10;100.00
74834;BME280;63361;52.384;20.930;2024-01-25T07:56:06;99713.75;;;4.45;100.00
74834;BME280;63361;52.384;20.930;2024-01-25T07:58:32;99668.69;;;4.16;100.00
74834;BME280;63361;52.384;20.930;2024-01-25T08:00:58;99684.00;;;4.26;100.00
74834;BME280;63361;52.384;20.930;2024-01-25T08:03:23;99705.94;;;4.33;100.00
74834;BME280;63361;52.384;20.930;2024-01-25T08:05:48;99675.31;;;4.09;100.00
74834;BME280;63361;52.384;20.930;2024-01-25T08:08:14;99711.22;;;4.28;100.00
74834;BME280;63361;52.384;20.930;2024-01-25T08:10:39;99712.88;;;4.34;100.00
74834;BME280;63361;52.384;20.930;2024-01-25T08:13:04;99674.75;;;4.07;100.00
74834;BME280;63361;52.384;20.930;2024-01-25T08:15:30;99695.69;;;4.20;100.00
74834;BME280;63361;52.384;20.930;2024-01-25T08:17:55;99687.97;;;4.23;100.00
74834;BME280;63361;52.384;20.930;2024-01-25T08:20:20;99702.19;;;4.34;100.00
74834;BME280;63361;52.384;20.930;2024-01-25T08:22:46;99677.19;;;4.13;100.00
74834;BME280;63361;52.384;20.930;2024-01-25T08:25:11;99677.13;;;4.03;100.00
74834;BME280;63361;52.384;20.930;2024-01-25T08:27:39;99705.38;;;4.31;100.00
74834;BME280;63361;52.384;20.930;2024-01-25T08:30:05;99635.03;;;3.83;100.00
74834;BME280;63361;52.384;20.930;2024-01-25T08:32:30;99725.94;;;4.31;100.00
74834;BME280;63361;52.384;20.930;2024-01-25T08:34:56;99738.59;;;4.40;100.00
74834;BME280;63361;52.384;20.930;2024-01-25T08:37:21;99698.06;;;4.16;100.00
74834;BME280;63361;52.384;20.930;2024-01-25T08:39:46;99731.88;;;4.38;100.00
74834;BME280;63361;52.384;20.930;2024-01-25T08:42:20;99735.19;;;4.50;100.00
74834;BME280;63361;52.384;20.930;2024-01-25T08:44:46;99709.34;;;4.29;100.00
74834;BME280;63361;52.384;20.930;2024-01-25T08:47:16;99684.94;;;4.10;100.00
74834;BME280;63361;52.384;20.930;2024-01-25T08:49:42;99712.25;;;4.22;100.00
74834;BME280;63361;52.384;20.930;2024-01-25T08:52:07;99699.47;;;4.24;100.00
74834;BME280;63361;52.384;20.930;2024-01-25T08:54:33;99721.72;;;4.35;100.00
74834;BME280;63361;52.384;20.930;2024-01-25T08:56:59;99766.00;;;4.63;100.00
74834;BME280;63361;52.384;20.930;2024-01-25T08:59:25;99765.69;;;4.54;100.00
74834;BME280;63361;52.384;20.930;2024-01-25T09:01:51;99725.13;;;4.30;100.00
74834;BME280;63361;52.384;20.930;2024-01-25T09:04:17;99774.25;;;4.56;100.00
74834;BME280;63361;52.384;20.930;2024-01-25T09:06:43;99742.91;;;4.46;100.00
74834;BME280;63361;52.384;20.930;2024-01-25T09:09:09;99723.00;;;4.27;100.00
74834;BME280;63361;52.384;20.930;2024-01-25T09:11:36;99755.25;;;4.52;100.00
74834;BME280;63361;52.384;20.930;2024-01-25T09:14:01;99752.06;;;4.55;100.00
74834;BME280;63361;52.384;20.930;2024-01-25T09:16:26;99757.97;;;4.57;100.00
74834;BME280;63361;52.384;20.930;2024-01-25T09:18:52;99768.13;;;4.60;100.00
74834;BME280;63361;52.384;20.930;2024-01-25T09:21:17;99800.03;;;4.72;100.00
74834;BME280;63361;52.384;20.930;2024-01-25T09:23:42;99789.06;;;4.74;100.00
74834;BME280;63361;52.384;20.930;2024-01-25T09:26:08;99781.59;;;4.76;100.00
74834;BME280;63361;52.384;20.930;2024-01-25T09:28:34;99792.59;;;4.79;100.00
74834;BME280;63361;52.384;20.930;2024-01-25T09:30:59;99794.00;;;4.87;100.00
74834;BME280;63361;52.384;20.930;2024-01-25T09:33:24;99809.75;;;4.83;100.00
74834;BME280;63361;52.384;20.930;2024-01-25T09:35:49;99791.28;;;4.82;100.00
74834;BME280;63361;52.384;20.930;2024-01-25T09:38:15;99768.69;;;4.63;100.00
74834;BME280;63361;52.384;20.930;2024-01-25T09:40:40;99835.22;;;4.96;100.00
74834;BME280;63361;52.384;20.930;2024-01-25T09:43:06;99825.34;;;4.97;100.00
74834;BME280;63361;52.384;20.930;2024-01-25T09:45:31;99840.88;;;5.00;100.00
74834;BME280;63361;52.384;20.930;2024-01-25T09:47:57;99841.75;;;5.10;100.00
74834;BME280;63361;52.384;20.930;2024-01-25T09:50:23;99838.50;;;5.03;100.00
74834;BME280;63361;52.384;20.930;2024-01-25T09:52:54;99819.22;;;5.01;100.00
74834;BME280;63361;52.384;20.930;2024-01-25T09:55:24;99844.66;;;5.09;100.00
74834;BME280;63361;52.384;20.930;2024-01-25T09:57:53;99840.63;;;5.06;100.00
74834;BME280;63361;52.384;20.930;2024-01-25T10:00:22;99870.69;;;5.18;100.00
74834;BME280;63361;52.384;20.930;2024-01-25T10:02:48;99822.38;;;4.93;100.00
74834;BME280;63361;52.384;20.930;2024-01-25T10:05:17;99822.81;;;4.80;100.00
74834;BME280;63361;52.384;20.930;2024-01-25T10:07:46;99866.06;;;5.04;100.00
74834;BME280;63361;52.384;20.930;2024-01-25T10:10:13;99825.19;;;4.76;100.00
74834;BME280;63361;52.384;20.930;2024-01-25T10:12:42;99826.47;;;4.69;100.00
74834;BME280;63361;52.384;20.930;2024-01-25T10:15:08;99835.84;;;4.71;100.00
74834;BME280;63361;52.384;20.930;2024-01-25T10:17:34;99837.22;;;4.79;100.00
74834;BME280;63361;52.384;20.930;2024-01-25T10:19:59;99868.19;;;5.02;100.00
74834;BME280;63361;52.384;20.930;2024-01-25T10:22:25;99880.03;;;5.16;100.00
74834;BME280;63361;52.384;20.930;2024-01-25T10:24:50;99816.66;;;4.79;100.00
74834;BME280;63361;52.384;20.930;2024-01-25T10:27:16;99842.25;;;5.07;100.00
74834;BME280;63361;52.384;20.930;2024-01-25T10:29:42;99842.09;;;5.19;100.00
74834;BME280;63361;52.384;20.930;2024-01-25T10:32:11;99817.31;;;4.97;100.00
74834;BME280;63361;52.384;20.930;2024-01-25T10:34:37;99829.97;;;5.11;100.00
74834;BME280;63361;52.384;20.930;2024-01-25T10:37:06;99891.19;;;5.45;100.00
74834;BME280;63361;52.384;20.930;2024-01-25T10:39:33;99871.59;;;5.34;100.00
74834;BME280;63361;52.384;20.930;2024-01-25T10:41:59;99895.44;;;5.41;100.00
74834;BME280;63361;52.384;20.930;2024-01-25T10:44:25;99883.91;;;5.35;100.00
74834;BME280;63361;52.384;20.930;2024-01-25T10:46:50;99894.19;;;5.53;100.00
74834;BME280;63361;52.384;20.930;2024-01-25T10:49:17;99825.50;;;5.22;100.00
74834;BME280;63361;52.384;20.930;2024-01-25T10:51:44;99853.22;;;5.48;100.00
74834;BME280;63361;52.384;20.930;2024-01-25T10:54:11;99883.81;;;5.67;100.00
74834;BME280;63361;52.384;20.930;2024-01-25T10:56:38;99857.00;;;5.57;100.00
74834;BME280;63361;52.384;20.930;2024-01-25T10:59:03;99905.03;;;5.79;100.00
74834;BME280;63361;52.384;20.930;2024-01-25T11:01:30;99831.66;;;5.22;100.00
74834;BME280;63361;52.384;20.930;2024-01-25T11:03:55;99855.25;;;5.36;100.00
74834;BME280;63361;52.384;20.930;2024-01-25T11:06:21;99884.00;;;5.50;100.00
74834;BME280;63361;52.384;20.930;2024-01-25T11:08:47;99846.91;;;5.22;100.00
74834;BME280;63361;52.384;20.930;2024-01-25T11:11:14;99856.03;;;5.26;100.00
74834;BME280;63361;52.384;20.930;2024-01-25T11:13:41;99896.84;;;5.48;100.00
74834;BME280;63361;52.384;20.930;2024-01-25T11:16:31;99901.66;;;5.46;100.00
74834;BME280;63361;52.384;20.930;2024-01-25T11:18:58;99845.38;;;4.94;100.00
74834;BME280;63361;52.384;20.930;2024-01-25T11:21:39;99929.69;;;5.39;100.00
74834;BME280;63361;52.384;20.930;2024-01-25T11:24:12;99896.47;;;5.29;100.00
74834;BME280;63361;52.384;20.930;2024-01-25T11:26:37;99902.00;;;5.18;100.00
74834;BME280;63361;52.384;20.930;2024-01-25T11:29:03;99920.31;;;5.36;100.00
74834;BME280;63361;52.384;20.930;2024-01-25T11:31:28;99923.75;;;5.32;100.00
74834;BME280;63361;52.384;20.930;2024-01-25T11:34:00;99939.59;;;5.38;100.00
74834;BME280;63361;52.384;20.930;2024-01-25T11:36:26;99896.81;;;5.06;100.00
74834;BME280;63361;52.384;20.930;2024-01-25T11:38:51;99938.66;;;5.17;100.00
74834;BME280;63361;52.384;20.930;2024-01-25T11:41:17;99865.25;;;4.71;100.00
74834;BME280;63361;52.384;20.930;2024-01-25T11:43:42;99957.63;;;5.16;100.00
74834;BME280;63361;52.384;20.930;2024-01-25T11:46:08;99883.66;;;4.68;100.00
74834;BME280;63361;52.384;20.930;2024-01-25T11:48:33;99937.03;;;4.89;100.00
74834;BME280;63361;52.384;20.930;2024-01-25T11:51:00;99959.88;;;4.97;100.00
74834;BME280;63361;52.384;20.930;2024-01-25T11:53:25;99956.75;;;4.78;100.00
74834;BME280;63361;52.384;20.930;2024-01-25T11:55:51;99992.41;;;4.89;100.00
74834;BME280;63361;52.384;20.930;2024-01-25T11:58:16;99969.38;;;4.61;100.00
74834;BME280;63361;52.384;20.930;2024-01-25T12:00:42;100003.22;;;4.72;100.00
74834;BME280;63361;52.384;20.930;2024-01-25T12:03:08;99975.59;;;4.40;100.00
74834;BME280;63361;52.384;20.930;2024-01-25T12:05:34;99992.81;;;4.27;100.00
74834;BME280;63361;52.384;20.930;2024-01-25T12:07:59;100036.47;;;3.99;100.00
74834;BME280;63361;52.384;20.930;2024-01-25T12:10:25;99978.06;;;3.31;100.00
74834;BME280;63361;52.384;20.930;2024-01-25T12:12:51;100011.78;;;3.53;100.00
74834;BME280;63361;52.384;20.930;2024-01-25T12:15:16;100017.59;;;3.34;100.00
74834;BME280;63361;52.384;20.930;2024-01-25T12:17:42;100061.41;;;3.54;100.00
74834;BME280;63361;52.384;20.930;2024-01-25T12:20:08;100023.31;;;3.26;100.00
74834;BME280;63361;52.384;20.930;2024-01-25T12:22:38;100042.81;;;3.26;100.00
74834;BME280;63361;52.384;20.930;2024-01-25T12:25:07;100011.53;;;3.05;100.00
74834;BME280;63361;52.384;20.930;2024-01-25T12:27:34;100065.19;;;3.25;100.00
74834;BME280;63361;52.384;20.930;2024-01-25T12:30:00;100079.19;;;3.32;100.00
74834;BME280;63361;52.384;20.930;2024-01-25T12:32:25;100110.66;;;3.47;100.00
74834;BME280;63361;52.384;20.930;2024-01-25T12:34:57;100085.06;;;3.17;100.00
74834;BME280;63361;52.384;20.930;2024-01-25T12:37:23;100119.25;;;3.49;100.00
74834;BME280;63361;52.384;20.930;2024-01-25T12:39:51;100118.56;;;3.42;100.00
74834;BME280;63361;52.384;20.930;2024-01-25T12:42:17;100074.88;;;3.14;100.00